sensor_id;sensor_type;location;lat;lon;timestamp;P1;durP1;ratioP1;P2;durP2;ratioP2
10319;SDS011;5205;52.168;5.420;2023-10-08T00:00:23;25.13;;;5.35;;
10319;SDS011;5205;52.168;5.420;2023-10-08T00:03:12;16.33;;;4.35;;
10319;SDS011;5205;52.168;5.420;2023-10-08T00:05:40;18.52;;;4.20;;
10319;SDS011;5205;52.168;5.420;2023-10-08T00:08:07;16.92;;;4.47;;
10319;SDS011;5205;52.168;5.420;2023-10-08T00:10:35;17.38;;;3.90;;
10319;SDS011;5205;52.168;5.420;2023-10-08T00:13:05;19.10;;;4.38;;
10319;SDS011;5205;52.168;5.420;2023-10-08T00:15:34;17.05;;;3.92;;
10319;SDS011;5205;52.168;5.420;2023-10-08T00:18:02;16.65;;;4.68;;
10319;SDS011;5205;52.168;5.420;2023-10-08T00:20:34;14.15;;;3.65;;
10319;SDS011;5205;52.168;5.420;2023-10-08T00:23:23;24.02;;;4.07;;
10319;SDS011;5205;52.168;5.420;2023-10-08T00:25:50;25.35;;;4.88;;
10319;SDS011;5205;52.168;5.420;2023-10-08T00:28:18;19.98;;;4.65;;
10319;SDS011;5205;52.168;5.420;2023-10-08T00:30:46;21.80;;;4.57;;
10319;SDS011;5205;52.168;5.420;2023-10-08T00:33:14;16.02;;;4.50;;
10319;SDS011;5205;52.168;5.420;2023-10-08T00:35:43;14.05;;;4.47;;
10319;SDS011;5205;52.168;5.420;2023-10-08T00:38:10;13.52;;;4.55;;
10319;SDS011;5205;52.168;5.420;2023-10-08T00:40:45;25.52;;;4.95;;
10319;SDS011;5205;52.168;5.420;2023-10-08T00:45:56;22.08;;;4.35;;
10319;SDS011;5205;52.168;5.420;2023-10-08T00:48:24;13.90;;;4.85;;
10319;SDS011;5205;52.168;5.420;2023-10-08T00:50:55;16.98;;;3.95;;
10319;SDS011;5205;52.168;5.420;2023-10-08T00:53:33;22.70;;;3.85;;
10319;SDS011;5205;52.168;5.420;2023-10-08T00:56:04;15.88;;;4.07;;
10319;SDS011;5205;52.168;5.420;2023-10-08T00:58:38;13.88;;;3.97;;
10319;SDS011;5205;52.168;5.420;2023-10-08T01:01:06;20.52;;;4.95;;
10319;SDS011;5205;52.168;5.420;2023-10-08T01:03:35;19.63;;;6.75;;
10319;SDS011;5205;52.168;5.420;2023-10-08T01:06:10;19.00;;;4.90;;
10319;SDS011;5205;52.168;5.420;2023-10-08T01:08:43;20.23;;;4.50;;
10319;SDS011;5205;52.168;5.420;2023-10-08T01:11:17;20.08;;;4.28;;
10319;SDS011;5205;52.168;5.420;2023-10-08T01:13:45;17.83;;;4.43;;
10319;SDS011;5205;52.168;5.420;2023-10-08T01:16:14;20.38;;;4.25;;
10319;SDS011;5205;52.168;5.420;2023-10-08T01:18:43;21.20;;;4.68;;
10319;SDS011;5205;52.168;5.420;2023-10-08T01:21:17;18.27;;;3.92;;
10319;SDS011;5205;52.168;5.420;2023-10-08T01:24:00;16.10;;;4.50;;
10319;SDS011;5205;52.168;5.420;2023-10-08T01:26:31;20.98;;;4.65;;
10319;SDS011;5205;52.168;5.420;2023-10-08T01:28:58;11.32;;;4.20;;
10319;SDS011;5205;52.168;5.420;2023-10-08T01:31:29;17.25;;;4.53;;
10319;SDS011;5205;52.168;5.420;2023-10-08T01:33:57;17.92;;;4.13;;
10319;SDS011;5205;52.168;5.420;2023-10-08T01:36:25;19.40;;;4.68;;
10319;SDS011;5205;52.168;5.420;2023-10-08T01:38:53;16.48;;;4.47;;
10319;SDS011;5205;52.168;5.420;2023-10-08T01:41:22;14.88;;;4.30;;
10319;SDS011;5205;52.168;5.420;2023-10-08T01:43:55;22.10;;;4.40;;
10319;SDS011;5205;52.168;5.420;2023-10-08T01:46:23;24.42;;;4.38;;
10319;SDS011;5205;52.168;5.420;2023-10-08T01:48:51;19.88;;;4.45;;
10319;SDS011;5205;52.168;5.420;2023-10-08T01:51:25;16.58;;;4.45;;
10319;SDS011;5205;52.168;5.420;2023-10-08T01:54:02;21.70;;;4.78;;
10319;SDS011;5205;52.168;5.420;2023-10-08T01:56:36;20.00;;;4.82;;
10319;SDS011;5205;52.168;5.420;2023-10-08T01:59:03;15.88;;;4.53;;
10319;SDS011;5205;52.168;5.420;2023-10-08T02:01:31;13.45;;;4.53;;
10319;SDS011;5205;52.168;5.420;2023-10-08T02:03:58;26.98;;;4.97;;
10319;SDS011;5205;52.168;5.420;2023-10-08T02:06:25;21.40;;;4.90;;
10319;SDS011;5205;52.168;5.420;2023-10-08T02:08:52;18.17;;;5.03;;
10319;SDS011;5205;52.168;5.420;2023-10-08T02:11:19;18.63;;;4.38;;
10319;SDS011;5205;52.168;5.420;2023-10-08T02:13:48;19.80;;;4.82;;
10319;SDS011;5205;52.168;5.420;2023-10-08T02:16:17;22.92;;;5.78;;
10319;SDS011;5205;52.168;5.420;2023-10-08T02:18:44;15.00;;;4.68;;
10319;SDS011;5205;52.168;5.420;2023-10-08T02:21:12;18.55;;;4.97;;
10319;SDS011;5205;52.168;5.420;2023-10-08T02:23:40;14.80;;;4.65;;
10319;SDS011;5205;52.168;5.420;2023-10-08T02:26:08;21.13;;;5.70;;
10319;SDS011;5205;52.168;5.420;2023-10-08T02:28:36;19.52;;;4.80;;
10319;SDS011;5205;52.168;5.420;2023-10-08T02:31:05;22.77;;;4.88;;
10319;SDS011;5205;52.168;5.420;2023-10-08T02:33:33;17.52;;;4.68;;
10319;SDS011;5205;52.168;5.420;2023-10-08T02:36:02;21.50;;;5.70;;
10319;SDS011;5205;52.168;5.420;2023-10-08T02:38:30;21.70;;;4.90;;
10319;SDS011;5205;52.168;5.420;2023-10-08T02:41:03;21.25;;;6.03;;
10319;SDS011;5205;52.168;5.420;2023-10-08T02:43:32;15.65;;;5.10;;
10319;SDS011;5205;52.168;5.420;2023-10-08T02:46:01;24.40;;;5.88;;
10319;SDS011;5205;52.168;5.420;2023-10-08T02:48:33;15.10;;;6.35;;
10319;SDS011;5205;52.168;5.420;2023-10-08T02:51:01;18.25;;;6.65;;
10319;SDS011;5205;52.168;5.420;2023-10-08T02:53:38;20.48;;;6.68;;
10319;SDS011;5205;52.168;5.420;2023-10-08T02:56:07;18.80;;;5.55;;
10319;SDS011;5205;52.168;5.420;2023-10-08T02:58:38;25.65;;;5.82;;
10319;SDS011;5205;52.168;5.420;2023-10-08T03:01:06;19.30;;;5.97;;
10319;SDS011;5205;52.168;5.420;2023-10-08T03:03:39;18.83;;;6.28;;
10319;SDS011;5205;52.168;5.420;2023-10-08T03:06:08;16.23;;;5.20;;
10319;SDS011;5205;52.168;5.420;2023-10-08T03:08:37;14.63;;;5.85;;
10319;SDS011;5205;52.168;5.420;2023-10-08T03:11:08;22.30;;;7.28;;
10319;SDS011;5205;52.168;5.420;2023-10-08T03:13:42;18.88;;;6.38;;
10319;SDS011;5205;52.168;5.420;2023-10-08T03:16:11;14.68;;;5.43;;
10319;SDS011;5205;52.168;5.420;2023-10-08T03:18:40;15.63;;;5.15;;
10319;SDS011;5205;52.168;5.420;2023-10-08T03:21:10;14.35;;;5.53;;
10319;SDS011;5205;52.168;5.420;2023-10-08T03:23:47;21.38;;;6.30;;
10319;SDS011;5205;52.168;5.420;2023-10-08T03:26:16;17.13;;;5.88;;
10319;SDS011;5205;52.168;5.420;2023-10-08T03:28:59;13.88;;;5.15;;
10319;SDS011;5205;52.168;5.420;2023-10-08T03:31:32;20.77;;;6.07;;
10319;SDS011;5205;52.168;5.420;2023-10-08T03:34:16;18.48;;;5.75;;
10319;SDS011;5205;52.168;5.420;2023-10-08T03:36:44;19.23;;;5.72;;
10319;SDS011;5205;52.168;5.420;2023-10-08T03:39:12;17.52;;;6.18;;
10319;SDS011;5205;52.168;5.420;2023-10-08T03:41:39;20.67;;;5.70;;
10319;SDS011;5205;52.168;5.420;2023-10-08T03:44:06;19.95;;;6.43;;
10319;SDS011;5205;52.168;5.420;2023-10-08T03:46:37;20.23;;;5.40;;
10319;SDS011;5205;52.168;5.420;2023-10-08T03:49:07;16.30;;;5.03;;
10319;SDS011;5205;52.168;5.420;2023-10-08T03:51:42;12.32;;;5.05;;
10319;SDS011;5205;52.168;5.420;2023-10-08T03:54:09;14.50;;;4.20;;
10319;SDS011;5205;52.168;5.420;2023-10-08T03:56:43;26.10;;;4.82;;
10319;SDS011;5205;52.168;5.420;2023-10-08T03:59:16;11.40;;;3.60;;
10319;SDS011;5205;52.168;5.420;2023-10-08T04:01:55;15.27;;;4.07;;
10319;SDS011;5205;52.168;5.420;2023-10-08T04:04:24;15.52;;;4.13;;
10319;SDS011;5205;52.168;5.420;2023-10-08T04:07:13;23.85;;;4.38;;
10319;SDS011;5205;52.168;5.420;2023-10-08T04:09:53;9.68;;;3.42;;
10319;SDS011;5205;52.168;5.420;2023-10-08T04:12:41;6.30;;;2.95;;
10319;SDS011;5205;52.168;5.420;2023-10-08T04:15:12;12.07;;;2.92;;
10319;SDS011;5205;52.168;5.420;2023-10-08T04:17:41;13.38;;;3.28;;
10319;SDS011;5205;52.168;5.420;2023-10-08T04:20:10;8.85;;;2.88;;
10319;SDS011;5205;52.168;5.420;2023-10-08T04:22:57;8.65;;;2.90;;
10319;SDS011;5205;52.168;5.420;2023-10-08T04:25:25;9.40;;;2.60;;
10319;SDS011;5205;52.168;5.420;2023-10-08T04:27:53;9.18;;;2.67;;
10319;SDS011;5205;52.168;5.420;2023-10-08T04:30:23;9.18;;;2.83;;
10319;SDS011;5205;52.168;5.420;2023-10-08T04:32:57;8.20;;;2.90;;
10319;SDS011;5205;52.168;5.420;2023-10-08T04:35:31;10.18;;;2.80;;
10319;SDS011;5205;52.168;5.420;2023-10-08T04:38:02;9.40;;;2.85;;
10319;SDS011;5205;52.168;5.420;2023-10-08T04:40:33;10.88;;;3.13;;
10319;SDS011;5205;52.168;5.420;2023-10-08T04:43:07;18.13;;;3.92;;
10319;SDS011;5205;52.168;5.420;2023-10-08T04:45:35;8.88;;;3.58;;
10319;SDS011;5205;52.168;5.420;2023-10-08T04:48:03;7.95;;;2.88;;
10319;SDS011;5205;52.168;5.420;2023-10-08T04:50:34;12.35;;;3.17;;
10319;SDS011;5205;52.168;5.420;2023-10-08T04:53:03;8.98;;;2.70;;
10319;SDS011;5205;52.168;5.420;2023-10-08T04:55:33;9.38;;;3.47;;
10319;SDS011;5205;52.168;5.420;2023-10-08T04:58:06;10.00;;;3.15;;
10319;SDS011;5205;52.168;5.420;2023-10-08T05:00:44;14.43;;;2.72;;
10319;SDS011;5205;52.168;5.420;2023-10-08T05:03:19;8.20;;;3.08;;
10319;SDS011;5205;52.168;5.420;2023-10-08T05:05:48;17.27;;;3.20;;
10319;SDS011;5205;52.168;5.420;2023-10-08T05:08:34;10.65;;;2.67;;
10319;SDS011;5205;52.168;5.420;2023-10-08T05:11:13;11.20;;;3.13;;
10319;SDS011;5205;52.168;5.420;2023-10-08T05:14:11;9.70;;;3.35;;
10319;SDS011;5205;52.168;5.420;2023-10-08T05:16:54;11.20;;;3.70;;
10319;SDS011;5205;52.168;5.420;2023-10-08T05:19:25;5.93;;;2.75;;
10319;SDS011;5205;52.168;5.420;2023-10-08T05:22:14;12.68;;;3.42;;
10319;SDS011;5205;52.168;5.420;2023-10-08T05:24:48;9.15;;;2.78;;
10319;SDS011;5205;52.168;5.420;2023-10-08T05:27:29;6.07;;;2.90;;
10319;SDS011;5205;52.168;5.420;2023-10-08T05:30:14;8.50;;;2.80;;
10319;SDS011;5205;52.168;5.420;2023-10-08T05:32:42;15.52;;;2.75;;
10319;SDS011;5205;52.168;5.420;2023-10-08T05:35:31;12.32;;;3.25;;
10319;SDS011;5205;52.168;5.420;2023-10-08T05:38:12;8.10;;;2.80;;
10319;SDS011;5205;52.168;5.420;2023-10-08T05:40:43;8.25;;;3.15;;
10319;SDS011;5205;52.168;5.420;2023-10-08T05:43:29;6.30;;;2.15;;
10319;SDS011;5205;52.168;5.420;2023-10-08T05:49:00;9.05;;;2.33;;
10319;SDS011;5205;52.168;5.420;2023-10-08T05:51:40;6.43;;;1.92;;
10319;SDS011;5205;52.168;5.420;2023-10-08T05:54:11;6.60;;;1.80;;
10319;SDS011;5205;52.168;5.420;2023-10-08T05:56:52;4.22;;;1.85;;
10319;SDS011;5205;52.168;5.420;2023-10-08T05:59:31;6.85;;;2.05;;
10319;SDS011;5205;52.168;5.420;2023-10-08T06:02:04;6.57;;;1.90;;
10319;SDS011;5205;52.168;5.420;2023-10-08T06:04:51;11.68;;;1.88;;
10319;SDS011;5205;52.168;5.420;2023-10-08T06:07:35;7.68;;;1.63;;
10319;SDS011;5205;52.168;5.420;2023-10-08T06:10:13;6.68;;;1.58;;
10319;SDS011;5205;52.168;5.420;2023-10-08T06:13:03;7.50;;;1.80;;
10319;SDS011;5205;52.168;5.420;2023-10-08T06:15:35;9.27;;;2.22;;
10319;SDS011;5205;52.168;5.420;2023-10-08T06:18:09;4.60;;;1.58;;
10319;SDS011;5205;52.168;5.420;2023-10-08T06:20:38;6.15;;;1.30;;
10319;SDS011;5205;52.168;5.420;2023-10-08T06:23:09;5.95;;;1.70;;
10319;SDS011;5205;52.168;5.420;2023-10-08T06:25:38;8.65;;;1.58;;
10319;SDS011;5205;52.168;5.420;2023-10-08T06:28:15;5.07;;;1.10;;
10319;SDS011;5205;52.168;5.420;2023-10-08T06:30:44;4.75;;;1.30;;
10319;SDS011;5205;52.168;5.420;2023-10-08T06:33:12;3.90;;;1.52;;
10319;SDS011;5205;52.168;5.420;2023-10-08T06:35:39;5.50;;;1.33;;
10319;SDS011;5205;52.168;5.420;2023-10-08T06:38:09;6.13;;;1.45;;
10319;SDS011;5205;52.168;5.420;2023-10-08T06:40:40;4.72;;;1.20;;
10319;SDS011;5205;52.168;5.420;2023-10-08T06:43:06;5.28;;;1.30;;
10319;SDS011;5205;52.168;5.420;2023-10-08T06:45:48;3.50;;;1.20;;
10319;SDS011;5205;52.168;5.420;2023-10-08T06:48:18;3.67;;;1.20;;
10319;SDS011;5205;52.168;5.420;2023-10-08T06:50:46;2.40;;;1.27;;
10319;SDS011;5205;52.168;5.420;2023-10-08T06:53:14;3.03;;;1.45;;
10319;SDS011;5205;52.168;5.420;2023-10-08T06:55:43;5.57;;;1.60;;
10319;SDS011;5205;52.168;5.420;2023-10-08T06:58:10;7.95;;;1.80;;
10319;SDS011;5205;52.168;5.420;2023-10-08T07:00:39;8.48;;;1.67;;
10319;SDS011;5205;52.168;5.420;2023-10-08T07:03:13;3.22;;;1.38;;
10319;SDS011;5205;52.168;5.420;2023-10-08T07:05:41;3.47;;;1.30;;
10319;SDS011;5205;52.168;5.420;2023-10-08T07:08:09;2.05;;;1.17;;
10319;SDS011;5205;52.168;5.420;2023-10-08T07:10:38;2.78;;;1.27;;
10319;SDS011;5205;52.168;5.420;2023-10-08T07:13:07;3.00;;;1.20;;
10319;SDS011;5205;52.168;5.420;2023-10-08T07:15:34;3.33;;;1.48;;
10319;SDS011;5205;52.168;5.420;2023-10-08T07:18:04;2.65;;;1.70;;
10319;SDS011;5205;52.168;5.420;2023-10-08T07:20:40;2.53;;;1.30;;
10319;SDS011;5205;52.168;5.420;2023-10-08T07:23:08;4.00;;;1.60;;
10319;SDS011;5205;52.168;5.420;2023-10-08T07:25:44;3.42;;;1.67;;
10319;SDS011;5205;52.168;5.420;2023-10-08T07:28:16;3.10;;;1.50;;
10319;SDS011;5205;52.168;5.420;2023-10-08T07:30:44;2.88;;;1.60;;
10319;SDS011;5205;52.168;5.420;2023-10-08T07:33:13;2.83;;;1.40;;
10319;SDS011;5205;52.168;5.420;2023-10-08T07:35:45;3.85;;;1.70;;
10319;SDS011;5205;52.168;5.420;2023-10-08T07:38:22;4.03;;;1.80;;
10319;SDS011;5205;52.168;5.420;2023-10-08T07:40:52;3.67;;;1.75;;
10319;SDS011;5205;52.168;5.420;2023-10-08T07:43:20;2.83;;;1.60;;
10319;SDS011;5205;52.168;5.420;2023-10-08T07:45:47;3.55;;;1.90;;
10319;SDS011;5205;52.168;5.420;2023-10-08T07:48:14;2.50;;;1.63;;
10319;SDS011;5205;52.168;5.420;2023-10-08T07:50:42;4.53;;;1.77;;
10319;SDS011;5205;52.168;5.420;2023-10-08T07:53:11;3.72;;;1.95;;
10319;SDS011;5205;52.168;5.420;2023-10-08T07:55:43;2.78;;;1.70;;
10319;SDS011;5205;52.168;5.420;2023-10-08T07:58:12;3.30;;;2.15;;
10319;SDS011;5205;52.168;5.420;2023-10-08T08:00:40;3.80;;;1.65;;
10319;SDS011;5205;52.168;5.420;2023-10-08T08:03:07;4.38;;;2.00;;
10319;SDS011;5205;52.168;5.420;2023-10-08T08:05:34;3.10;;;1.63;;
10319;SDS011;5205;52.168;5.420;2023-10-08T08:08:02;3.25;;;1.60;;
10319;SDS011;5205;52.168;5.420;2023-10-08T08:10:33;3.90;;;1.90;;
10319;SDS011;5205;52.168;5.420;2023-10-08T08:13:02;2.25;;;1.30;;
10319;SDS011;5205;52.168;5.420;2023-10-08T08:15:31;3.78;;;1.58;;
10319;SDS011;5205;52.168;5.420;2023-10-08T08:17:59;3.22;;;1.80;;
10319;SDS011;5205;52.168;5.420;2023-10-08T08:20:26;4.72;;;1.67;;
10319;SDS011;5205;52.168;5.420;2023-10-08T08:23:04;3.28;;;1.63;;
10319;SDS011;5205;52.168;5.420;2023-10-08T08:25:36;2.40;;;1.45;;
10319;SDS011;5205;52.168;5.420;2023-10-08T08:28:10;3.75;;;1.63;;
10319;SDS011;5205;52.168;5.420;2023-10-08T08:30:42;3.80;;;1.58;;
10319;SDS011;5205;52.168;5.420;2023-10-08T08:33:12;3.17;;;1.35;;
10319;SDS011;5205;52.168;5.420;2023-10-08T08:35:42;3.10;;;1.75;;
10319;SDS011;5205;52.168;5.420;2023-10-08T08:38:10;5.00;;;1.80;;
10319;SDS011;5205;52.168;5.420;2023-10-08T08:40:39;3.47;;;2.00;;
10319;SDS011;5205;52.168;5.420;2023-10-08T08:43:06;3.83;;;1.60;;
10319;SDS011;5205;52.168;5.420;2023-10-08T08:45:36;4.60;;;1.85;;
10319;SDS011;5205;52.168;5.420;2023-10-08T08:48:05;2.55;;;1.45;;
10319;SDS011;5205;52.168;5.420;2023-10-08T08:50:33;3.30;;;1.65;;
10319;SDS011;5205;52.168;5.420;2023-10-08T08:53:02;3.25;;;1.67;;
10319;SDS011;5205;52.168;5.420;2023-10-08T08:55:30;3.78;;;1.80;;
10319;SDS011;5205;52.168;5.420;2023-10-08T08:57:59;5.95;;;1.33;;
10319;SDS011;5205;52.168;5.420;2023-10-08T09:00:29;3.85;;;1.52;;
10319;SDS011;5205;52.168;5.420;2023-10-08T09:02:57;3.33;;;1.38;;
10319;SDS011;5205;52.168;5.420;2023-10-08T09:05:24;5.38;;;1.85;;
10319;SDS011;5205;52.168;5.420;2023-10-08T09:07:52;6.78;;;1.77;;
10319;SDS011;5205;52.168;5.420;2023-10-08T09:10:20;3.92;;;1.48;;
10319;SDS011;5205;52.168;5.420;2023-10-08T09:12:52;2.42;;;1.45;;
10319;SDS011;5205;52.168;5.420;2023-10-08T09:15:21;4.32;;;1.63;;
10319;SDS011;5205;52.168;5.420;2023-10-08T09:17:49;3.60;;;1.65;;
10319;SDS011;5205;52.168;5.420;2023-10-08T09:20:16;4.25;;;1.63;;
10319;SDS011;5205;52.168;5.420;2023-10-08T09:22:46;3.95;;;1.20;;
10319;SDS011;5205;52.168;5.420;2023-10-08T09:25:15;4.60;;;1.60;;
10319;SDS011;5205;52.168;5.420;2023-10-08T09:27:50;4.25;;;1.40;;
10319;SDS011;5205;52.168;5.420;2023-10-08T09:30:19;4.25;;;1.77;;
10319;SDS011;5205;52.168;5.420;2023-10-08T09:32:48;3.00;;;1.63;;
10319;SDS011;5205;52.168;5.420;2023-10-08T09:35:16;3.80;;;1.67;;
10319;SDS011;5205;52.168;5.420;2023-10-08T09:37:44;3.97;;;1.63;;
10319;SDS011;5205;52.168;5.420;2023-10-08T09:40:11;3.10;;;1.80;;
10319;SDS011;5205;52.168;5.420;2023-10-08T09:42:46;3.47;;;1.50;;
10319;SDS011;5205;52.168;5.420;2023-10-08T09:45:13;4.85;;;1.67;;
10319;SDS011;5205;52.168;5.420;2023-10-08T09:47:42;6.97;;;1.38;;
10319;SDS011;5205;52.168;5.420;2023-10-08T09:50:11;8.65;;;1.88;;
10319;SDS011;5205;52.168;5.420;2023-10-08T09:52:39;5.43;;;1.70;;
10319;SDS011;5205;52.168;5.420;2023-10-08T09:55:09;5.65;;;1.55;;
10319;SDS011;5205;52.168;5.420;2023-10-08T09:57:37;5.20;;;1.50;;
10319;SDS011;5205;52.168;5.420;2023-10-08T10:00:04;3.60;;;1.70;;
10319;SDS011;5205;52.168;5.420;2023-10-08T10:02:33;4.95;;;1.75;;
10319;SDS011;5205;52.168;5.420;2023-10-08T10:05:00;5.03;;;1.90;;
10319;SDS011;5205;52.168;5.420;2023-10-08T10:07:29;3.58;;;1.83;;
10319;SDS011;5205;52.168;5.420;2023-10-08T10:09:56;3.28;;;1.75;;
10319;SDS011;5205;52.168;5.420;2023-10-08T10:12:24;4.20;;;1.75;;
10319;SDS011;5205;52.168;5.420;2023-10-08T10:14:52;3.45;;;1.90;;
10319;SDS011;5205;52.168;5.420;2023-10-08T10:17:20;2.63;;;1.67;;
10319;SDS011;5205;52.168;5.420;2023-10-08T10:19:49;5.35;;;2.10;;
10319;SDS011;5205;52.168;5.420;2023-10-08T10:22:26;3.55;;;1.80;;
10319;SDS011;5205;52.168;5.420;2023-10-08T10:24:59;3.10;;;1.73;;
10319;SDS011;5205;52.168;5.420;2023-10-08T10:27:29;5.25;;;1.83;;
10319;SDS011;5205;52.168;5.420;2023-10-08T10:30:00;4.07;;;1.77;;
10319;SDS011;5205;52.168;5.420;2023-10-08T10:32:33;5.93;;;2.08;;
10319;SDS011;5205;52.168;5.420;2023-10-08T10:35:00;3.38;;;1.88;;
10319;SDS011;5205;52.168;5.420;2023-10-08T10:37:29;5.95;;;2.30;;
10319;SDS011;5205;52.168;5.420;2023-10-08T10:40:08;6.07;;;2.92;;
10319;SDS011;5205;52.168;5.420;2023-10-08T10:42:37;4.90;;;2.22;;
10319;SDS011;5205;52.168;5.420;2023-10-08T10:45:12;3.05;;;2.10;;
10319;SDS011;5205;52.168;5.420;2023-10-08T10:47:59;3.95;;;2.40;;
10319;SDS011;5205;52.168;5.420;2023-10-08T10:50:36;3.97;;;2.25;;
10319;SDS011;5205;52.168;5.420;2023-10-08T10:53:13;5.88;;;2.20;;
10319;SDS011;5205;52.168;5.420;2023-10-08T10:55:42;5.40;;;2.65;;
10319;SDS011;5205;52.168;5.420;2023-10-08T10:58:23;3.38;;;2.00;;
10319;SDS011;5205;52.168;5.420;2023-10-08T11:00:51;6.18;;;2.13;;
10319;SDS011;5205;52.168;5.420;2023-10-08T11:03:24;4.60;;;2.38;;
10319;SDS011;5205;52.168;5.420;2023-10-08T11:05:56;5.07;;;2.65;;
10319;SDS011;5205;52.168;5.420;2023-10-08T11:08:30;5.75;;;2.47;;
10319;SDS011;5205;52.168;5.420;2023-10-08T11:11:02;3.78;;;2.22;;
10319;SDS011;5205;52.168;5.420;2023-10-08T11:13:32;4.88;;;2.30;;
10319;SDS011;5205;52.168;5.420;2023-10-08T11:16:04;3.28;;;2.00;;
10319;SDS011;5205;52.168;5.420;2023-10-08T11:18:32;3.90;;;2.28;;
10319;SDS011;5205;52.168;5.420;2023-10-08T11:21:06;4.80;;;2.00;;
10319;SDS011;5205;52.168;5.420;2023-10-08T11:23:44;3.72;;;2.10;;
10319;SDS011;5205;52.168;5.420;2023-10-08T11:26:19;6.53;;;2.53;;
10319;SDS011;5205;52.168;5.420;2023-10-08T11:28:52;3.33;;;2.03;;
10319;SDS011;5205;52.168;5.420;2023-10-08T11:31:19;4.10;;;1.98;;
10319;SDS011;5205;52.168;5.420;2023-10-08T11:33:48;4.60;;;2.30;;
10319;SDS011;5205;52.168;5.420;2023-10-08T11:36:20;4.80;;;2.85;;
10319;SDS011;5205;52.168;5.420;2023-10-08T11:38:52;5.68;;;2.58;;
10319;SDS011;5205;52.168;5.420;2023-10-08T11:41:27;5.35;;;2.88;;
10319;SDS011;5205;52.168;5.420;2023-10-08T11:43:56;3.38;;;2.40;;
10319;SDS011;5205;52.168;5.420;2023-10-08T11:46:24;3.65;;;2.40;;
10319;SDS011;5205;52.168;5.420;2023-10-08T11:48:58;3.97;;;2.50;;
10319;SDS011;5205;52.168;5.420;2023-10-08T11:51:30;3.53;;;1.95;;
10319;SDS011;5205;52.168;5.420;2023-10-08T11:53:57;4.47;;;2.53;;
10319;SDS011;5205;52.168;5.420;2023-10-08T11:56:26;5.00;;;2.78;;
10319;SDS011;5205;52.168;5.420;2023-10-08T11:58:53;6.43;;;3.00;;
10319;SDS011;5205;52.168;5.420;2023-10-08T12:01:22;5.55;;;3.15;;
10319;SDS011;5205;52.168;5.420;2023-10-08T12:03:49;7.22;;;2.80;;
10319;SDS011;5205;52.168;5.420;2023-10-08T12:06:16;6.40;;;3.00;;
10319;SDS011;5205;52.168;5.420;2023-10-08T12:08:44;5.22;;;2.88;;
10319;SDS011;5205;52.168;5.420;2023-10-08T12:11:12;5.60;;;2.50;;
10319;SDS011;5205;52.168;5.420;2023-10-08T12:13:41;5.03;;;3.15;;
10319;SDS011;5205;52.168;5.420;2023-10-08T12:16:11;4.43;;;2.83;;
10319;SDS011;5205;52.168;5.420;2023-10-08T12:18:43;3.90;;;2.40;;
10319;SDS011;5205;52.168;5.420;2023-10-08T12:21:13;6.80;;;3.17;;
10319;SDS011;5205;52.168;5.420;2023-10-08T12:23:41;12.27;;;5.10;;
10319;SDS011;5205;52.168;5.420;2023-10-08T12:26:10;5.32;;;2.33;;
10319;SDS011;5205;52.168;5.420;2023-10-08T12:28:42;3.92;;;2.20;;
10319;SDS011;5205;52.168;5.420;2023-10-08T12:31:11;6.32;;;2.50;;
10319;SDS011;5205;52.168;5.420;2023-10-08T12:33:40;4.13;;;2.35;;
10319;SDS011;5205;52.168;5.420;2023-10-08T12:36:08;5.18;;;3.10;;
10319;SDS011;5205;52.168;5.420;2023-10-08T12:38:39;4.60;;;2.70;;
10319;SDS011;5205;52.168;5.420;2023-10-08T12:41:07;5.93;;;2.63;;
10319;SDS011;5205;52.168;5.420;2023-10-08T12:43:38;3.72;;;2.38;;
10319;SDS011;5205;52.168;5.420;2023-10-08T12:46:08;4.75;;;2.47;;
10319;SDS011;5205;52.168;5.420;2023-10-08T12:48:44;5.20;;;2.30;;
10319;SDS011;5205;52.168;5.420;2023-10-08T12:51:13;4.50;;;2.30;;
10319;SDS011;5205;52.168;5.420;2023-10-08T12:53:41;3.40;;;1.98;;
10319;SDS011;5205;52.168;5.420;2023-10-08T12:56:15;5.55;;;2.08;;
10319;SDS011;5205;52.168;5.420;2023-10-08T12:58:46;4.15;;;2.13;;
10319;SDS011;5205;52.168;5.420;2023-10-08T13:01:15;4.55;;;2.50;;
10319;SDS011;5205;52.168;5.420;2023-10-08T13:03:43;3.75;;;1.85;;
10319;SDS011;5205;52.168;5.420;2023-10-08T13:06:14;4.95;;;2.25;;
10319;SDS011;5205;52.168;5.420;2023-10-08T13:08:47;7.65;;;1.92;;
10319;SDS011;5205;52.168;5.420;2023-10-08T13:11:15;4.20;;;1.80;;
10319;SDS011;5205;52.168;5.420;2023-10-08T13:16:15;5.85;;;2.10;;
10319;SDS011;5205;52.168;5.420;2023-10-08T13:18:42;3.50;;;1.60;;
10319;SDS011;5205;52.168;5.420;2023-10-08T13:21:10;6.55;;;1.88;;
10319;SDS011;5205;52.168;5.420;2023-10-08T13:23:38;4.85;;;1.73;;
10319;SDS011;5205;52.168;5.420;2023-10-08T13:26:06;3.20;;;1.75;;
10319;SDS011;5205;52.168;5.420;2023-10-08T13:28:33;4.03;;;1.70;;
10319;SDS011;5205;52.168;5.420;2023-10-08T13:31:00;5.20;;;2.67;;
10319;SDS011;5205;52.168;5.420;2023-10-08T13:33:36;3.42;;;1.38;;
10319;SDS011;5205;52.168;5.420;2023-10-08T13:36:05;5.60;;;1.35;;
10319;SDS011;5205;52.168;5.420;2023-10-08T13:38:34;4.03;;;1.20;;
10319;SDS011;5205;52.168;5.420;2023-10-08T13:41:01;3.55;;;1.75;;
10319;SDS011;5205;52.168;5.420;2023-10-08T13:43:32;3.20;;;1.40;;
10319;SDS011;5205;52.168;5.420;2023-10-08T13:46:03;2.92;;;1.23;;
10319;SDS011;5205;52.168;5.420;2023-10-08T13:48:32;2.92;;;1.60;;
10319;SDS011;5205;52.168;5.420;2023-10-08T13:51:02;3.00;;;1.40;;
10319;SDS011;5205;52.168;5.420;2023-10-08T13:53:30;5.63;;;1.60;;
10319;SDS011;5205;52.168;5.420;2023-10-08T13:55:58;4.95;;;1.70;;
10319;SDS011;5205;52.168;5.420;2023-10-08T13:58:26;7.78;;;1.88;;
10319;SDS011;5205;52.168;5.420;2023-10-08T14:00:55;5.13;;;1.80;;
10319;SDS011;5205;52.168;5.420;2023-10-08T14:03:22;7.20;;;2.10;;
10319;SDS011;5205;52.168;5.420;2023-10-08T14:05:49;3.70;;;1.50;;
10319;SDS011;5205;52.168;5.420;2023-10-08T14:08:18;3.45;;;1.80;;
10319;SDS011;5205;52.168;5.420;2023-10-08T14:10:47;9.45;;;2.00;;
10319;SDS011;5205;52.168;5.420;2023-10-08T14:13:15;4.35;;;1.75;;
10319;SDS011;5205;52.168;5.420;2023-10-08T14:15:44;4.57;;;1.88;;
10319;SDS011;5205;52.168;5.420;2023-10-08T14:18:14;6.38;;;1.77;;
10319;SDS011;5205;52.168;5.420;2023-10-08T14:20:43;4.07;;;1.60;;
10319;SDS011;5205;52.168;5.420;2023-10-08T14:23:12;6.03;;;2.08;;
10319;SDS011;5205;52.168;5.420;2023-10-08T14:25:43;5.72;;;2.25;;
10319;SDS011;5205;52.168;5.420;2023-10-08T14:28:11;5.60;;;1.88;;
10319;SDS011;5205;52.168;5.420;2023-10-08T14:30:47;5.00;;;2.15;;
10319;SDS011;5205;52.168;5.420;2023-10-08T14:33:19;4.57;;;1.75;;
10319;SDS011;5205;52.168;5.420;2023-10-08T14:35:51;6.30;;;2.33;;
10319;SDS011;5205;52.168;5.420;2023-10-08T14:38:36;9.20;;;2.70;;
10319;SDS011;5205;52.168;5.420;2023-10-08T14:41:23;8.10;;;2.78;;
10319;SDS011;5205;52.168;5.420;2023-10-08T14:44:07;3.80;;;1.88;;
10319;SDS011;5205;52.168;5.420;2023-10-08T14:46:36;5.82;;;2.22;;
10319;SDS011;5205;52.168;5.420;2023-10-08T14:49:03;5.93;;;2.47;;
10319;SDS011;5205;52.168;5.420;2023-10-08T14:51:36;6.20;;;2.80;;
10319;SDS011;5205;52.168;5.420;2023-10-08T14:54:03;4.30;;;2.00;;
10319;SDS011;5205;52.168;5.420;2023-10-08T14:56:33;7.90;;;2.20;;
10319;SDS011;5205;52.168;5.420;2023-10-08T15:24:19;5.55;;;2.45;;
10319;SDS011;5205;52.168;5.420;2023-10-08T15:26:47;6.57;;;2.15;;
10319;SDS011;5205;52.168;5.420;2023-10-08T15:29:17;5.38;;;1.75;;
10319;SDS011;5205;52.168;5.420;2023-10-08T15:31:45;8.63;;;2.70;;
10319;SDS011;5205;52.168;5.420;2023-10-08T15:34:14;4.90;;;2.20;;
10319;SDS011;5205;52.168;5.420;2023-10-08T15:36:41;5.38;;;1.95;;
10319;SDS011;5205;52.168;5.420;2023-10-08T15:39:10;4.18;;;2.05;;
10319;SDS011;5205;52.168;5.420;2023-10-08T15:41:39;3.78;;;1.80;;
10319;SDS011;5205;52.168;5.420;2023-10-08T15:44:08;6.60;;;2.05;;
10319;SDS011;5205;52.168;5.420;2023-10-08T15:46:35;4.03;;;1.95;;
10319;SDS011;5205;52.168;5.420;2023-10-08T15:49:02;6.93;;;2.20;;
10319;SDS011;5205;52.168;5.420;2023-10-08T15:51:29;8.32;;;2.42;;
10319;SDS011;5205;52.168;5.420;2023-10-08T15:53:57;4.00;;;2.10;;